sensor_id;sensor_type;location;lat;lon;timestamp;P1;durP1;ratioP1;P2;durP2;ratioP2
3939;SDS011;1984;48.312;9.244;2023-09-19T00:01:05;1.10;;;1.00;;
3939;SDS011;1984;48.312;9.244;2023-09-19T00:03:34;2.00;;;0.90;;
3939;SDS011;1984;48.312;9.244;2023-09-19T00:06:03;1.23;;;0.87;;
3939;SDS011;1984;48.312;9.244;2023-09-19T00:08:30;2.43;;;0.97;;
3939;SDS011;1984;48.312;9.244;2023-09-19T00:10:56;1.10;;;0.70;;
3939;SDS011;1984;48.312;9.244;2023-09-19T00:13:23;0.83;;;0.70;;
3939;SDS011;1984;48.312;9.244;2023-09-19T00:15:49;3.10;;;0.90;;
3939;SDS011;1984;48.312;9.244;2023-09-19T00:18:15;1.17;;;0.70;;
3939;SDS011;1984;48.312;9.244;2023-09-19T00:20:42;1.03;;;0.73;;
3939;SDS011;1984;48.312;9.244;2023-09-19T00:23:07;5.23;;;0.80;;
3939;SDS011;1984;48.312;9.244;2023-09-19T00:25:33;4.70;;;1.07;;
3939;SDS011;1984;48.312;9.244;2023-09-19T00:28:06;1.60;;;1.30;;
3939;SDS011;1984;48.312;9.244;2023-09-19T00:30:32;0.70;;;0.70;;
3939;SDS011;1984;48.312;9.244;2023-09-19T00:32:58;1.00;;;0.90;;
3939;SDS011;1984;48.312;9.244;2023-09-19T00:35:25;1.10;;;1.00;;
3939;SDS011;1984;48.312;9.244;2023-09-19T00:37:52;1.20;;;0.87;;
3939;SDS011;1984;48.312;9.244;2023-09-19T00:40:18;1.10;;;1.00;;
3939;SDS011;1984;48.312;9.244;2023-09-19T00:42:44;2.07;;;0.80;;
3939;SDS011;1984;48.312;9.244;2023-09-19T00:45:11;1.17;;;0.90;;
3939;SDS011;1984;48.312;9.244;2023-09-19T00:47:39;1.27;;;1.10;;
3939;SDS011;1984;48.312;9.244;2023-09-19T00:50:06;0.90;;;0.90;;
3939;SDS011;1984;48.312;9.244;2023-09-19T00:52:34;1.90;;;1.00;;
3939;SDS011;1984;48.312;9.244;2023-09-19T00:55:04;1.43;;;0.90;;
3939;SDS011;1984;48.312;9.244;2023-09-19T00:57:31;0.93;;;0.93;;
3939;SDS011;1984;48.312;9.244;2023-09-19T00:59:59;0.90;;;0.80;;
3939;SDS011;1984;48.312;9.244;2023-09-19T01:02:30;1.27;;;0.93;;
3939;SDS011;1984;48.312;9.244;2023-09-19T01:04:57;2.00;;;1.00;;
3939;SDS011;1984;48.312;9.244;2023-09-19T01:07:23;0.80;;;0.80;;
3939;SDS011;1984;48.312;9.244;2023-09-19T01:09:49;5.40;;;0.73;;
3939;SDS011;1984;48.312;9.244;2023-09-19T01:12:17;0.93;;;0.93;;
3939;SDS011;1984;48.312;9.244;2023-09-19T01:14:53;1.63;;;0.93;;
3939;SDS011;1984;48.312;9.244;2023-09-19T01:17:46;0.83;;;0.70;;
3939;SDS011;1984;48.312;9.244;2023-09-19T01:20:27;0.90;;;0.90;;
3939;SDS011;1984;48.312;9.244;2023-09-19T01:26:04;8.43;;;1.03;;
3939;SDS011;1984;48.312;9.244;2023-09-19T01:31:12;1.73;;;1.10;;
3939;SDS011;1984;48.312;9.244;2023-09-19T01:33:55;0.70;;;0.70;;
3939;SDS011;1984;48.312;9.244;2023-09-19T01:36:28;1.37;;;1.03;;
3939;SDS011;1984;48.312;9.244;2023-09-19T01:38:55;2.63;;;0.90;;
3939;SDS011;1984;48.312;9.244;2023-09-19T01:42:13;0.90;;;0.90;;
3939;SDS011;1984;48.312;9.244;2023-09-19T01:44:40;1.73;;;1.20;;
3939;SDS011;1984;48.312;9.244;2023-09-19T01:47:19;2.83;;;1.07;;
3939;SDS011;1984;48.312;9.244;2023-09-19T01:50:42;1.00;;;0.80;;
3939;SDS011;1984;48.312;9.244;2023-09-19T01:52:46;1.90;;;1.40;;
3939;SDS011;1984;48.312;9.244;2023-09-19T01:55:14;0.90;;;0.90;;
3939;SDS011;1984;48.312;9.244;2023-09-19T01:57:48;1.10;;;1.00;;
3939;SDS011;1984;48.312;9.244;2023-09-19T02:00:32;1.27;;;1.00;;
3939;SDS011;1984;48.312;9.244;2023-09-19T02:03:01;1.10;;;1.00;;
3939;SDS011;1984;48.312;9.244;2023-09-19T02:05:27;1.73;;;0.83;;
3939;SDS011;1984;48.312;9.244;2023-09-19T02:07:53;1.20;;;1.10;;
3939;SDS011;1984;48.312;9.244;2023-09-19T02:10:20;1.23;;;1.10;;
3939;SDS011;1984;48.312;9.244;2023-09-19T02:12:46;3.77;;;1.00;;
3939;SDS011;1984;48.312;9.244;2023-09-19T02:15:12;0.87;;;0.80;;
3939;SDS011;1984;48.312;9.244;2023-09-19T02:17:40;1.53;;;1.00;;
3939;SDS011;1984;48.312;9.244;2023-09-19T02:20:07;5.90;;;1.03;;
3939;SDS011;1984;48.312;9.244;2023-09-19T02:22:35;3.60;;;1.33;;
3939;SDS011;1984;48.312;9.244;2023-09-19T02:25:00;2.73;;;0.97;;
3939;SDS011;1984;48.312;9.244;2023-09-19T02:27:26;1.10;;;0.80;;
3939;SDS011;1984;48.312;9.244;2023-09-19T02:29:52;0.97;;;0.97;;
3939;SDS011;1984;48.312;9.244;2023-09-19T02:32:18;1.70;;;1.13;;
3939;SDS011;1984;48.312;9.244;2023-09-19T02:34:43;1.20;;;1.10;;
3939;SDS011;1984;48.312;9.244;2023-09-19T02:37:10;0.97;;;0.97;;
3939;SDS011;1984;48.312;9.244;2023-09-19T02:39:35;0.93;;;0.90;;
3939;SDS011;1984;48.312;9.244;2023-09-19T02:42:01;1.07;;;0.80;;
3939;SDS011;1984;48.312;9.244;2023-09-19T02:44:28;1.90;;;0.80;;
3939;SDS011;1984;48.312;9.244;2023-09-19T02:46:54;1.00;;;0.87;;
3939;SDS011;1984;48.312;9.244;2023-09-19T02:49:20;0.93;;;0.90;;
3939;SDS011;1984;48.312;9.244;2023-09-19T02:51:45;5.47;;;1.20;;
3939;SDS011;1984;48.312;9.244;2023-09-19T02:54:12;3.33;;;1.03;;
3939;SDS011;1984;48.312;9.244;2023-09-19T02:56:38;1.43;;;0.93;;
3939;SDS011;1984;48.312;9.244;2023-09-19T02:59:04;1.23;;;1.13;;
3939;SDS011;1984;48.312;9.244;2023-09-19T03:01:30;0.90;;;0.80;;
3939;SDS011;1984;48.312;9.244;2023-09-19T03:03:56;2.67;;;2.47;;
3939;SDS011;1984;48.312;9.244;2023-09-19T03:06:21;2.20;;;1.40;;
3939;SDS011;1984;48.312;9.244;2023-09-19T03:08:48;3.03;;;1.20;;
3939;SDS011;1984;48.312;9.244;2023-09-19T03:11:16;3.80;;;1.00;;
3939;SDS011;1984;48.312;9.244;2023-09-19T03:13:46;1.37;;;1.27;;
3939;SDS011;1984;48.312;9.244;2023-09-19T03:16:18;1.03;;;1.03;;
3939;SDS011;1984;48.312;9.244;2023-09-19T03:18:47;3.60;;;2.20;;
3939;SDS011;1984;48.312;9.244;2023-09-19T03:21:13;7.10;;;4.17;;
3939;SDS011;1984;48.312;9.244;2023-09-19T03:23:40;25.53;;;13.40;;
3939;SDS011;1984;48.312;9.244;2023-09-19T03:26:05;53.17;;;26.63;;
3939;SDS011;1984;48.312;9.244;2023-09-19T03:28:32;30.83;;;15.27;;
3939;SDS011;1984;48.312;9.244;2023-09-19T03:30:59;33.40;;;17.47;;
3939;SDS011;1984;48.312;9.244;2023-09-19T03:33:29;12.00;;;7.10;;
3939;SDS011;1984;48.312;9.244;2023-09-19T03:35:58;5.40;;;2.60;;
3939;SDS011;1984;48.312;9.244;2023-09-19T03:38:25;3.13;;;1.20;;
3939;SDS011;1984;48.312;9.244;2023-09-19T03:40:52;1.43;;;1.33;;
3939;SDS011;1984;48.312;9.244;2023-09-19T03:43:17;2.00;;;1.13;;
3939;SDS011;1984;48.312;9.244;2023-09-19T03:45:44;2.10;;;1.50;;
3939;SDS011;1984;48.312;9.244;2023-09-19T03:48:11;2.47;;;1.57;;
3939;SDS011;1984;48.312;9.244;2023-09-19T03:50:37;2.60;;;1.40;;
3939;SDS011;1984;48.312;9.244;2023-09-19T03:53:03;1.50;;;1.20;;
3939;SDS011;1984;48.312;9.244;2023-09-19T03:55:29;1.10;;;1.10;;
3939;SDS011;1984;48.312;9.244;2023-09-19T03:57:57;4.63;;;1.17;;
3939;SDS011;1984;48.312;9.244;2023-09-19T04:00:23;1.50;;;1.10;;
3939;SDS011;1984;48.312;9.244;2023-09-19T04:02:51;1.33;;;1.23;;
3939;SDS011;1984;48.312;9.244;2023-09-19T04:05:17;6.00;;;1.73;;
3939;SDS011;1984;48.312;9.244;2023-09-19T04:07:43;1.83;;;1.00;;
3939;SDS011;1984;48.312;9.244;2023-09-19T04:10:09;1.60;;;1.50;;
3939;SDS011;1984;48.312;9.244;2023-09-19T04:12:36;4.43;;;1.63;;
3939;SDS011;1984;48.312;9.244;2023-09-19T04:15:03;2.17;;;1.50;;
3939;SDS011;1984;48.312;9.244;2023-09-19T04:17:30;3.70;;;1.87;;
3939;SDS011;1984;48.312;9.244;2023-09-19T04:19:58;1.73;;;1.60;;
3939;SDS011;1984;48.312;9.244;2023-09-19T04:22:23;2.33;;;1.83;;
3939;SDS011;1984;48.312;9.244;2023-09-19T04:24:49;2.30;;;1.53;;
3939;SDS011;1984;48.312;9.244;2023-09-19T04:27:14;3.00;;;2.10;;
3939;SDS011;1984;48.312;9.244;2023-09-19T04:29:40;15.37;;;2.20;;
3939;SDS011;1984;48.312;9.244;2023-09-19T04:32:08;1.60;;;1.50;;
3939;SDS011;1984;48.312;9.244;2023-09-19T04:34:34;1.87;;;1.50;;
3939;SDS011;1984;48.312;9.244;2023-09-19T04:37:00;3.73;;;1.70;;
3939;SDS011;1984;48.312;9.244;2023-09-19T04:39:26;2.60;;;1.90;;
3939;SDS011;1984;48.312;9.244;2023-09-19T04:41:52;1.67;;;1.20;;
3939;SDS011;1984;48.312;9.244;2023-09-19T04:44:18;1.50;;;1.40;;
3939;SDS011;1984;48.312;9.244;2023-09-19T04:46:44;2.47;;;1.60;;
3939;SDS011;1984;48.312;9.244;2023-09-19T04:49:11;5.27;;;1.73;;
3939;SDS011;1984;48.312;9.244;2023-09-19T04:51:40;2.63;;;2.00;;
3939;SDS011;1984;48.312;9.244;2023-09-19T04:54:05;1.97;;;1.37;;
3939;SDS011;1984;48.312;9.244;2023-09-19T04:56:31;1.30;;;1.20;;
3939;SDS011;1984;48.312;9.244;2023-09-19T04:58:57;3.03;;;1.33;;
3939;SDS011;1984;48.312;9.244;2023-09-19T05:01:24;1.80;;;1.40;;
3939;SDS011;1984;48.312;9.244;2023-09-19T05:03:49;1.53;;;1.30;;
3939;SDS011;1984;48.312;9.244;2023-09-19T05:06:18;1.70;;;1.60;;
3939;SDS011;1984;48.312;9.244;2023-09-19T05:08:46;1.47;;;1.37;;
3939;SDS011;1984;48.312;9.244;2023-09-19T05:11:17;2.00;;;1.60;;
3939;SDS011;1984;48.312;9.244;2023-09-19T05:13:43;1.13;;;1.13;;
3939;SDS011;1984;48.312;9.244;2023-09-19T05:16:09;1.33;;;1.33;;
3939;SDS011;1984;48.312;9.244;2023-09-19T05:18:35;1.40;;;1.30;;
3939;SDS011;1984;48.312;9.244;2023-09-19T05:21:02;1.97;;;1.57;;
3939;SDS011;1984;48.312;9.244;2023-09-19T05:23:28;2.33;;;1.47;;
3939;SDS011;1984;48.312;9.244;2023-09-19T05:25:53;1.90;;;1.40;;
3939;SDS011;1984;48.312;9.244;2023-09-19T05:28:19;3.77;;;1.30;;
3939;SDS011;1984;48.312;9.244;2023-09-19T05:30:45;2.00;;;1.43;;
3939;SDS011;1984;48.312;9.244;2023-09-19T05:33:12;2.87;;;1.67;;
3939;SDS011;1984;48.312;9.244;2023-09-19T05:35:38;4.13;;;2.47;;
3939;SDS011;1984;48.312;9.244;2023-09-19T05:38:04;6.10;;;1.53;;
3939;SDS011;1984;48.312;9.244;2023-09-19T05:40:33;2.40;;;1.40;;
3939;SDS011;1984;48.312;9.244;2023-09-19T05:43:00;1.30;;;1.20;;
3939;SDS011;1984;48.312;9.244;2023-09-19T05:45:26;2.63;;;2.40;;
3939;SDS011;1984;48.312;9.244;2023-09-19T05:47:52;2.10;;;1.90;;
3939;SDS011;1984;48.312;9.244;2023-09-19T05:50:26;3.50;;;2.20;;
3939;SDS011;1984;48.312;9.244;2023-09-19T05:52:54;2.30;;;1.97;;
3939;SDS011;1984;48.312;9.244;2023-09-19T05:55:21;2.67;;;2.47;;
3939;SDS011;1984;48.312;9.244;2023-09-19T05:57:53;4.10;;;2.00;;
3939;SDS011;1984;48.312;9.244;2023-09-19T06:00:19;4.33;;;1.90;;
3939;SDS011;1984;48.312;9.244;2023-09-19T06:02:51;3.53;;;1.90;;
3939;SDS011;1984;48.312;9.244;2023-09-19T06:05:17;2.83;;;2.47;;
3939;SDS011;1984;48.312;9.244;2023-09-19T06:07:43;14.37;;;2.17;;
3939;SDS011;1984;48.312;9.244;2023-09-19T06:10:09;1.70;;;1.60;;
3939;SDS011;1984;48.312;9.244;2023-09-19T06:12:38;1.40;;;1.30;;
3939;SDS011;1984;48.312;9.244;2023-09-19T06:15:04;1.57;;;1.10;;
3939;SDS011;1984;48.312;9.244;2023-09-19T06:17:31;1.37;;;1.27;;
3939;SDS011;1984;48.312;9.244;2023-09-19T06:19:56;2.00;;;1.10;;
3939;SDS011;1984;48.312;9.244;2023-09-19T06:22:23;1.27;;;0.97;;
3939;SDS011;1984;48.312;9.244;2023-09-19T06:24:49;0.90;;;0.90;;
3939;SDS011;1984;48.312;9.244;2023-09-19T06:27:15;1.30;;;1.17;;
3939;SDS011;1984;48.312;9.244;2023-09-19T06:29:40;1.00;;;1.00;;
3939;SDS011;1984;48.312;9.244;2023-09-19T06:32:07;2.53;;;1.90;;
3939;SDS011;1984;48.312;9.244;2023-09-19T06:34:36;5.03;;;1.37;;
3939;SDS011;1984;48.312;9.244;2023-09-19T06:37:08;1.70;;;1.60;;
3939;SDS011;1984;48.312;9.244;2023-09-19T06:39:34;2.47;;;1.57;;
3939;SDS011;1984;48.312;9.244;2023-09-19T06:41:59;3.10;;;1.20;;
3939;SDS011;1984;48.312;9.244;2023-09-19T06:44:26;2.60;;;1.10;;
3939;SDS011;1984;48.312;9.244;2023-09-19T06:46:54;1.37;;;0.97;;
3939;SDS011;1984;48.312;9.244;2023-09-19T06:49:20;0.90;;;0.90;;
3939;SDS011;1984;48.312;9.244;2023-09-19T06:51:45;1.20;;;1.10;;
3939;SDS011;1984;48.312;9.244;2023-09-19T06:54:11;2.00;;;1.00;;
3939;SDS011;1984;48.312;9.244;2023-09-19T06:56:36;4.90;;;1.80;;
3939;SDS011;1984;48.312;9.244;2023-09-19T06:59:02;1.23;;;0.90;;
3939;SDS011;1984;48.312;9.244;2023-09-19T07:01:30;1.23;;;0.90;;
3939;SDS011;1984;48.312;9.244;2023-09-19T07:03:57;1.13;;;1.10;;
3939;SDS011;1984;48.312;9.244;2023-09-19T07:06:22;2.63;;;1.13;;
3939;SDS011;1984;48.312;9.244;2023-09-19T07:08:48;0.70;;;0.70;;
3939;SDS011;1984;48.312;9.244;2023-09-19T07:11:15;2.93;;;1.60;;
3939;SDS011;1984;48.312;9.244;2023-09-19T07:13:41;1.47;;;1.10;;
3939;SDS011;1984;48.312;9.244;2023-09-19T07:16:07;3.87;;;1.27;;
3939;SDS011;1984;48.312;9.244;2023-09-19T07:18:35;1.13;;;0.80;;
3939;SDS011;1984;48.312;9.244;2023-09-19T07:21:01;1.40;;;1.10;;
3939;SDS011;1984;48.312;9.244;2023-09-19T07:23:29;1.10;;;1.00;;
3939;SDS011;1984;48.312;9.244;2023-09-19T07:26:00;1.70;;;1.00;;
3939;SDS011;1984;48.312;9.244;2023-09-19T07:28:26;0.93;;;0.80;;
3939;SDS011;1984;48.312;9.244;2023-09-19T07:30:53;0.80;;;0.80;;
3939;SDS011;1984;48.312;9.244;2023-09-19T07:33:19;1.23;;;0.87;;
3939;SDS011;1984;48.312;9.244;2023-09-19T07:35:45;1.00;;;1.00;;
3939;SDS011;1984;48.312;9.244;2023-09-19T07:38:12;1.80;;;1.10;;
3939;SDS011;1984;48.312;9.244;2023-09-19T07:40:37;3.73;;;0.90;;
3939;SDS011;1984;48.312;9.244;2023-09-19T07:43:03;3.23;;;0.90;;
3939;SDS011;1984;48.312;9.244;2023-09-19T07:45:30;1.00;;;1.00;;
3939;SDS011;1984;48.312;9.244;2023-09-19T07:47:56;1.03;;;0.80;;
3939;SDS011;1984;48.312;9.244;2023-09-19T07:50:22;3.27;;;1.23;;
3939;SDS011;1984;48.312;9.244;2023-09-19T07:52:48;4.10;;;1.00;;
3939;SDS011;1984;48.312;9.244;2023-09-19T07:55:15;3.30;;;1.00;;
3939;SDS011;1984;48.312;9.244;2023-09-19T07:57:45;1.20;;;1.00;;
3939;SDS011;1984;48.312;9.244;2023-09-19T08:00:11;0.93;;;0.77;;
3939;SDS011;1984;48.312;9.244;2023-09-19T08:02:38;1.70;;;1.00;;
3939;SDS011;1984;48.312;9.244;2023-09-19T08:05:05;0.87;;;0.87;;
3939;SDS011;1984;48.312;9.244;2023-09-19T08:07:32;1.10;;;1.00;;
3939;SDS011;1984;48.312;9.244;2023-09-19T08:09:57;1.20;;;1.20;;
3939;SDS011;1984;48.312;9.244;2023-09-19T08:12:23;1.07;;;1.00;;
3939;SDS011;1984;48.312;9.244;2023-09-19T08:14:49;2.00;;;1.00;;
3939;SDS011;1984;48.312;9.244;2023-09-19T08:17:15;1.63;;;0.90;;
3939;SDS011;1984;48.312;9.244;2023-09-19T08:19:41;3.07;;;1.20;;
3939;SDS011;1984;48.312;9.244;2023-09-19T08:22:09;2.20;;;1.10;;
3939;SDS011;1984;48.312;9.244;2023-09-19T08:24:35;1.63;;;1.33;;
3939;SDS011;1984;48.312;9.244;2023-09-19T08:27:01;3.00;;;1.17;;
3939;SDS011;1984;48.312;9.244;2023-09-19T08:29:29;0.97;;;0.93;;
3939;SDS011;1984;48.312;9.244;2023-09-19T08:31:59;2.57;;;0.90;;
3939;SDS011;1984;48.312;9.244;2023-09-19T08:34:24;2.47;;;1.30;;
3939;SDS011;1984;48.312;9.244;2023-09-19T08:36:51;4.70;;;1.20;;
3939;SDS011;1984;48.312;9.244;2023-09-19T08:39:25;1.13;;;1.03;;
3939;SDS011;1984;48.312;9.244;2023-09-19T08:41:58;1.50;;;0.90;;
3939;SDS011;1984;48.312;9.244;2023-09-19T08:44:24;0.90;;;0.80;;
3939;SDS011;1984;48.312;9.244;2023-09-19T08:46:50;1.30;;;1.20;;
3939;SDS011;1984;48.312;9.244;2023-09-19T08:49:21;2.23;;;0.80;;
3939;SDS011;1984;48.312;9.244;2023-09-19T08:51:56;3.93;;;1.40;;
3939;SDS011;1984;48.312;9.244;2023-09-19T08:54:33;5.10;;;1.43;;
3939;SDS011;1984;48.312;9.244;2023-09-19T08:57:05;0.97;;;0.97;;
3939;SDS011;1984;48.312;9.244;2023-09-19T08:59:39;2.30;;;1.30;;
3939;SDS011;1984;48.312;9.244;2023-09-19T09:02:09;3.13;;;1.47;;
3939;SDS011;1984;48.312;9.244;2023-09-19T09:04:38;0.90;;;0.90;;
3939;SDS011;1984;48.312;9.244;2023-09-19T09:07:06;1.60;;;1.23;;
3939;SDS011;1984;48.312;9.244;2023-09-19T09:09:36;7.10;;;1.20;;
3939;SDS011;1984;48.312;9.244;2023-09-19T09:12:02;2.80;;;1.13;;
3939;SDS011;1984;48.312;9.244;2023-09-19T09:14:29;2.10;;;0.93;;
3939;SDS011;1984;48.312;9.244;2023-09-19T09:16:55;2.20;;;1.10;;
3939;SDS011;1984;48.312;9.244;2023-09-19T09:19:23;1.70;;;1.20;;
3939;SDS011;1984;48.312;9.244;2023-09-19T09:21:50;2.87;;;1.40;;
3939;SDS011;1984;48.312;9.244;2023-09-19T09:24:26;2.97;;;1.33;;
3939;SDS011;1984;48.312;9.244;2023-09-19T09:26:53;1.13;;;1.00;;
3939;SDS011;1984;48.312;9.244;2023-09-19T09:29:36;7.30;;;1.30;;
3939;SDS011;1984;48.312;9.244;2023-09-19T09:32:20;1.53;;;0.90;;
3939;SDS011;1984;48.312;9.244;2023-09-19T09:34:51;2.10;;;1.03;;
3939;SDS011;1984;48.312;9.244;2023-09-19T09:37:19;2.17;;;1.10;;
3939;SDS011;1984;48.312;9.244;2023-09-19T09:39:57;1.43;;;1.03;;
3939;SDS011;1984;48.312;9.244;2023-09-19T09:42:43;1.97;;;1.00;;
3939;SDS011;1984;48.312;9.244;2023-09-19T09:45:12;6.30;;;0.90;;
3939;SDS011;1984;48.312;9.244;2023-09-19T09:48:02;0.90;;;0.90;;
3939;SDS011;1984;48.312;9.244;2023-09-19T09:50:46;2.50;;;1.20;;
3939;SDS011;1984;48.312;9.244;2023-09-19T09:53:22;1.00;;;0.83;;
3939;SDS011;1984;48.312;9.244;2023-09-19T09:55:59;1.23;;;0.90;;
3939;SDS011;1984;48.312;9.244;2023-09-19T09:58:51;8.17;;;1.13;;
3939;SDS011;1984;48.312;9.244;2023-09-19T10:01:20;1.13;;;1.03;;
3939;SDS011;1984;48.312;9.244;2023-09-19T10:03:52;1.20;;;0.90;;
3939;SDS011;1984;48.312;9.244;2023-09-19T10:06:22;1.03;;;0.90;;
3939;SDS011;1984;48.312;9.244;2023-09-19T10:11:27;3.80;;;1.00;;
3939;SDS011;1984;48.312;9.244;2023-09-19T10:13:55;2.20;;;1.23;;
3939;SDS011;1984;48.312;9.244;2023-09-19T10:16:21;2.97;;;0.80;;
3939;SDS011;1984;48.312;9.244;2023-09-19T10:18:49;2.73;;;1.10;;
3939;SDS011;1984;48.312;9.244;2023-09-19T10:21:20;2.47;;;1.23;;
3939;SDS011;1984;48.312;9.244;2023-09-19T10:23:47;3.47;;;1.07;;
3939;SDS011;1984;48.312;9.244;2023-09-19T10:26:17;2.00;;;1.10;;
3939;SDS011;1984;48.312;9.244;2023-09-19T10:28:42;1.50;;;1.13;;
3939;SDS011;1984;48.312;9.244;2023-09-19T10:31:13;3.23;;;1.30;;
3939;SDS011;1984;48.312;9.244;2023-09-19T10:33:42;1.33;;;1.00;;
3939;SDS011;1984;48.312;9.244;2023-09-19T10:36:08;1.40;;;0.97;;
3939;SDS011;1984;48.312;9.244;2023-09-19T10:38:36;1.30;;;1.10;;
3939;SDS011;1984;48.312;9.244;2023-09-19T10:41:05;1.47;;;1.23;;
3939;SDS011;1984;48.312;9.244;2023-09-19T10:43:32;3.40;;;1.00;;
3939;SDS011;1984;48.312;9.244;2023-09-19T10:46:02;9.00;;;1.00;;
3939;SDS011;1984;48.312;9.244;2023-09-19T10:48:32;1.70;;;0.80;;
3939;SDS011;1984;48.312;9.244;2023-09-19T10:51:02;2.80;;;1.10;;
3939;SDS011;1984;48.312;9.244;2023-09-19T10:53:43;0.80;;;0.80;;
3939;SDS011;1984;48.312;9.244;2023-09-19T10:57:10;4.73;;;0.93;;
3939;SDS011;1984;48.312;9.244;2023-09-19T10:59:16;2.40;;;1.00;;
3939;SDS011;1984;48.312;9.244;2023-09-19T11:04:22;0.93;;;0.80;;
3939;SDS011;1984;48.312;9.244;2023-09-19T11:07:05;1.00;;;0.90;;
3939;SDS011;1984;48.312;9.244;2023-09-19T11:09:44;0.80;;;0.77;;
3939;SDS011;1984;48.312;9.244;2023-09-19T11:14:57;2.60;;;0.90;;
3939;SDS011;1984;48.312;9.244;2023-09-19T11:17:30;1.50;;;0.83;;
3939;SDS011;1984;48.312;9.244;2023-09-19T11:30:43;1.03;;;0.90;;
3939;SDS011;1984;48.312;9.244;2023-09-19T11:36:10;1.20;;;0.90;;
3939;SDS011;1984;48.312;9.244;2023-09-19T11:43:46;1.73;;;1.10;;
3939;SDS011;1984;48.312;9.244;2023-09-19T11:46:16;4.97;;;1.80;;
3939;SDS011;1984;48.312;9.244;2023-09-19T11:48:47;1.30;;;1.20;;
3939;SDS011;1984;48.312;9.244;2023-09-19T11:51:15;2.93;;;0.90;;
3939;SDS011;1984;48.312;9.244;2023-09-19T11:53:48;0.90;;;0.90;;
3939;SDS011;1984;48.312;9.244;2023-09-19T11:56:15;2.90;;;1.33;;
3939;SDS011;1984;48.312;9.244;2023-09-19T11:58:43;2.13;;;1.00;;
3939;SDS011;1984;48.312;9.244;2023-09-19T12:01:11;1.10;;;1.00;;
3939;SDS011;1984;48.312;9.244;2023-09-19T12:03:45;1.40;;;1.13;;
3939;SDS011;1984;48.312;9.244;2023-09-19T12:06:15;1.10;;;0.90;;
3939;SDS011;1984;48.312;9.244;2023-09-19T12:08:44;1.60;;;1.30;;
3939;SDS011;1984;48.312;9.244;2023-09-19T12:11:13;1.10;;;1.00;;
3939;SDS011;1984;48.312;9.244;2023-09-19T12:13:41;1.70;;;1.30;;
3939;SDS011;1984;48.312;9.244;2023-09-19T12:16:13;1.37;;;1.27;;
3939;SDS011;1984;48.312;9.244;2023-09-19T12:18:40;1.33;;;1.00;;
3939;SDS011;1984;48.312;9.244;2023-09-19T12:21:20;0.90;;;0.90;;
3939;SDS011;1984;48.312;9.244;2023-09-19T12:26:45;16.73;;;1.37;;
3939;SDS011;1984;48.312;9.244;2023-09-19T12:29:18;1.10;;;1.00;;
3939;SDS011;1984;48.312;9.244;2023-09-19T12:34:25;1.20;;;0.90;;
3939;SDS011;1984;48.312;9.244;2023-09-19T12:37:05;2.07;;;1.23;;
3939;SDS011;1984;48.312;9.244;2023-09-19T12:39:40;1.70;;;1.30;;
3939;SDS011;1984;48.312;9.244;2023-09-19T12:42:08;1.40;;;1.00;;
3939;SDS011;1984;48.312;9.244;2023-09-19T12:44:41;3.00;;;1.40;;
3939;SDS011;1984;48.312;9.244;2023-09-19T12:47:10;3.17;;;1.43;;
3939;SDS011;1984;48.312;9.244;2023-09-19T12:52:35;4.63;;;1.43;;
3939;SDS011;1984;48.312;9.244;2023-09-19T12:55:01;4.83;;;1.10;;
3939;SDS011;1984;48.312;9.244;2023-09-19T12:57:27;1.27;;;0.93;;
3939;SDS011;1984;48.312;9.244;2023-09-19T12:59:53;2.70;;;1.53;;
3939;SDS011;1984;48.312;9.244;2023-09-19T13:02:20;1.80;;;1.37;;
3939;SDS011;1984;48.312;9.244;2023-09-19T13:04:55;1.70;;;1.20;;
3939;SDS011;1984;48.312;9.244;2023-09-19T13:07:43;2.40;;;1.30;;
3939;SDS011;1984;48.312;9.244;2023-09-19T13:10:12;1.60;;;1.40;;
3939;SDS011;1984;48.312;9.244;2023-09-19T13:12:41;1.50;;;1.17;;
3939;SDS011;1984;48.312;9.244;2023-09-19T13:15:12;2.73;;;1.33;;
3939;SDS011;1984;48.312;9.244;2023-09-19T13:17:43;4.50;;;1.03;;
3939;SDS011;1984;48.312;9.244;2023-09-19T13:20:23;1.43;;;1.33;;
3939;SDS011;1984;48.312;9.244;2023-09-19T13:22:52;1.23;;;1.13;;
3939;SDS011;1984;48.312;9.244;2023-09-19T13:25:19;1.60;;;1.40;;
3939;SDS011;1984;48.312;9.244;2023-09-19T13:27:50;1.60;;;1.10;;
3939;SDS011;1984;48.312;9.244;2023-09-19T13:30:19;3.00;;;1.57;;
3939;SDS011;1984;48.312;9.244;2023-09-19T13:32:46;2.83;;;1.40;;
3939;SDS011;1984;48.312;9.244;2023-09-19T13:35:12;2.57;;;1.30;;
3939;SDS011;1984;48.312;9.244;2023-09-19T13:37:39;2.53;;;1.70;;
3939;SDS011;1984;48.312;9.244;2023-09-19T13:40:13;1.20;;;1.13;;
3939;SDS011;1984;48.312;9.244;2023-09-19T13:42:40;9.20;;;1.23;;
3939;SDS011;1984;48.312;9.244;2023-09-19T13:45:06;1.13;;;1.13;;
3939;SDS011;1984;48.312;9.244;2023-09-19T13:47:34;1.20;;;1.00;;
3939;SDS011;1984;48.312;9.244;2023-09-19T13:50:03;1.70;;;1.60;;
3939;SDS011;1984;48.312;9.244;2023-09-19T13:52:29;3.27;;;1.70;;
3939;SDS011;1984;48.312;9.244;2023-09-19T13:54:56;2.77;;;1.40;;
3939;SDS011;1984;48.312;9.244;2023-09-19T13:57:28;1.47;;;1.13;;
3939;SDS011;1984;48.312;9.244;2023-09-19T13:59:54;10.13;;;1.13;;
3939;SDS011;1984;48.312;9.244;2023-09-19T14:02:23;1.60;;;1.17;;
3939;SDS011;1984;48.312;9.244;2023-09-19T14:04:49;2.37;;;1.20;;
3939;SDS011;1984;48.312;9.244;2023-09-19T14:07:15;1.77;;;1.60;;
3939;SDS011;1984;48.312;9.244;2023-09-19T14:09:43;1.60;;;1.10;;
3939;SDS011;1984;48.312;9.244;2023-09-19T14:12:09;3.13;;;1.13;;
3939;SDS011;1984;48.312;9.244;2023-09-19T14:14:35;2.27;;;1.40;;
3939;SDS011;1984;48.312;9.244;2023-09-19T14:17:02;1.67;;;1.20;;
3939;SDS011;1984;48.312;9.244;2023-09-19T14:19:28;2.07;;;1.00;;
3939;SDS011;1984;48.312;9.244;2023-09-19T14:21:53;6.67;;;1.40;;
3939;SDS011;1984;48.312;9.244;2023-09-19T14:24:20;4.73;;;1.60;;
3939;SDS011;1984;48.312;9.244;2023-09-19T14:26:47;3.80;;;1.43;;
3939;SDS011;1984;48.312;9.244;2023-09-19T14:29:14;1.70;;;1.30;;
3939;SDS011;1984;48.312;9.244;2023-09-19T14:31:40;1.60;;;1.50;;
3939;SDS011;1984;48.312;9.244;2023-09-19T14:34:06;1.77;;;1.07;;
3939;SDS011;1984;48.312;9.244;2023-09-19T14:36:35;1.50;;;1.30;;
3939;SDS011;1984;48.312;9.244;2023-09-19T14:39:00;2.30;;;1.40;;
3939;SDS011;1984;48.312;9.244;2023-09-19T14:41:26;2.43;;;1.60;;
3939;SDS011;1984;48.312;9.244;2023-09-19T14:43:52;3.13;;;1.43;;
3939;SDS011;1984;48.312;9.244;2023-09-19T14:46:17;1.90;;;1.47;;
3939;SDS011;1984;48.312;9.244;2023-09-19T14:48:44;1.10;;;0.97;;
3939;SDS011;1984;48.312;9.244;2023-09-19T14:51:12;3.00;;;1.40;;
3939;SDS011;1984;48.312;9.244;2023-09-19T14:53:38;1.97;;;1.23;;
3939;SDS011;1984;48.312;9.244;2023-09-19T14:56:06;2.23;;;1.10;;
3939;SDS011;1984;48.312;9.244;2023-09-19T14:58:33;2.00;;;1.40;;
3939;SDS011;1984;48.312;9.244;2023-09-19T15:01:09;2.23;;;1.43;;
3939;SDS011;1984;48.312;9.244;2023-09-19T15:03:36;1.50;;;1.40;;
3939;SDS011;1984;48.312;9.244;2023-09-19T15:06:02;1.47;;;1.17;;
3939;SDS011;1984;48.312;9.244;2023-09-19T15:08:32;1.00;;;1.00;;
3939;SDS011;1984;48.312;9.244;2023-09-19T15:11:00;3.63;;;1.40;;
3939;SDS011;1984;48.312;9.244;2023-09-19T15:13:31;1.37;;;1.27;;
3939;SDS011;1984;48.312;9.244;2023-09-19T15:15:59;1.50;;;1.27;;
3939;SDS011;1984;48.312;9.244;2023-09-19T15:18:26;1.47;;;1.30;;
3939;SDS011;1984;48.312;9.244;2023-09-19T15:20:51;1.70;;;1.47;;
3939;SDS011;1984;48.312;9.244;2023-09-19T15:23:18;1.90;;;1.40;;
3939;SDS011;1984;48.312;9.244;2023-09-19T15:25:47;1.63;;;1.40;;
3939;SDS011;1984;48.312;9.244;2023-09-19T15:28:15;5.50;;;1.70;;
3939;SDS011;1984;48.312;9.244;2023-09-19T15:30:41;2.90;;;1.13;;
3939;SDS011;1984;48.312;9.244;2023-09-19T15:33:06;4.80;;;1.60;;
3939;SDS011;1984;48.312;9.244;2023-09-19T15:35:32;3.20;;;1.30;;
3939;SDS011;1984;48.312;9.244;2023-09-19T15:37:58;1.60;;;1.50;;
3939;SDS011;1984;48.312;9.244;2023-09-19T15:40:25;1.37;;;1.20;;
3939;SDS011;1984;48.312;9.244;2023-09-19T15:42:52;1.23;;;1.13;;
3939;SDS011;1984;48.312;9.244;2023-09-19T15:45:19;1.77;;;1.23;;
3939;SDS011;1984;48.312;9.244;2023-09-19T15:47:44;1.67;;;1.30;;
3939;SDS011;1984;48.312;9.244;2023-09-19T15:50:10;1.47;;;1.03;;
3939;SDS011;1984;48.312;9.244;2023-09-19T15:52:39;2.30;;;0.90;;
3939;SDS011;1984;48.312;9.244;2023-09-19T15:55:05;2.63;;;1.80;;
3939;SDS011;1984;48.312;9.244;2023-09-19T15:57:31;1.47;;;1.13;;
3939;SDS011;1984;48.312;9.244;2023-09-19T15:59:57;2.13;;;1.23;;
3939;SDS011;1984;48.312;9.244;2023-09-19T16:02:23;1.73;;;1.30;;
3939;SDS011;1984;48.312;9.244;2023-09-19T16:04:51;3.80;;;1.30;;